aviador You're here:

LFBH Decoded Metar

LA ROCHELLE/LALE in FRANCE
Report Time2017-12-11 09:00:00
UTC Time2017-12-11 09:17:47
Flight Rules vfr VFR
Wind260° at 26 Gusting to 38 kt
W.Decomp.*RWY 27: 25.7 kt HW 4.1 kt LCW
W.Rank260° ranks 5
Current wind is above 260° avg. (9.4)
Visibility9999 m
Phenomena:Shower Rain
Clouds:Scattered 028 Hf
Broken 039 Hf
Broken 210 Hf
Expected CloudBase > 2,000 ft AGL from Temp-Dew spread
Ceiling3,900 ft
Temp10°C (ISA -5)
Dew Point05°C (71% RH)
AAT-0.5°C
QNH0979 hPa
Density Alt732 ft
Elevation33 ft
Report Wrong Elevation
Raw Report
LFBH 110900Z AUTO 26026G38KT 9999 SCT028 BKN039 BKN210 10/05 Q0979
TEMPO 26035G60KT SHRA BKN025TCU=

Extra information for LFBH:More info

Metar Taf Metar & Taf Last 4 Metars F.Rules Stats Wind Profile Meteogram Temp Stats Airport Information Weather charts Add Link Nearby VenuesMetar ALERT Operation Metar Decoded Social comments